Terminal Aerodrome Forecast
Issued by NWS

Home | Current Version | Previous Version | Text Only | Print | Product List | Glossary On
Versions: 1 2 3 4 5 6 7 8 9 10 11 12 13 14
000
FTUS45 KREV 031836 RRA
TAFMMH
TAF
KMMH 031836Z 0319/0418 10007KT P6SM SCT060 SCT100 BKN140
     FM032100 17008KT P6SM VCTS SCT070CB BKN110
     FM032300 26009G16KT P6SM VCTS SCT070CB BKN120
     FM040200 30009KT P6SM VCSH SCT060 BKN110
     FM040500 VRB04KT P6SM FEW050 SCT100 BKN140=

USA.gov is the U.S. government's official web portal to all federal, state and local government web resources and services.